createdAt,value
2022-10-09T00:01:11.100Z,12.40
2022-10-09T00:03:39.660Z,13.52
2022-10-09T00:06:08.023Z,13.13
2022-10-09T00:08:35.976Z,13.15
2022-10-09T00:11:11.422Z,13.73
2022-10-09T00:13:38.887Z,13.50
2022-10-09T00:16:09.014Z,12.57
2022-10-09T00:18:36.513Z,13.95
2022-10-09T00:21:04.683Z,13.45
2022-10-09T00:23:31.249Z,12.85
2022-10-09T00:26:00.823Z,14.55
2022-10-09T00:28:30.148Z,14.10
2022-10-09T00:30:57.547Z,13.27
2022-10-09T00:33:24.425Z,14.00
2022-10-09T00:35:51.500Z,14.82
2022-10-09T00:38:18.264Z,13.90
2022-10-09T00:40:44.828Z,14.48
2022-10-09T00:43:17.800Z,13.85
2022-10-09T00:45:50.156Z,14.43
2022-10-09T00:50:49.534Z,14.05
2022-10-09T00:53:20.220Z,15.45
2022-10-09T00:55:47.029Z,15.38
2022-10-09T00:58:14.466Z,15.40
2022-10-09T01:00:41.774Z,14.77
2022-10-09T01:03:08.498Z,16.00
2022-10-09T01:05:56.589Z,15.82
2022-10-09T01:08:33.721Z,17.63
2022-10-09T01:11:20.510Z,17.38
2022-10-09T01:13:56.854Z,17.67
2022-10-09T01:16:28.658Z,17.48
2022-10-09T01:19:06.185Z,18.63
2022-10-09T01:21:43.674Z,18.83
2022-10-09T01:24:37.823Z,19.85
2022-10-09T01:27:32.726Z,18.50
2022-10-09T01:30:06.362Z,18.10
2022-10-09T01:32:37.196Z,18.33
2022-10-09T01:35:06.302Z,20.25
2022-10-09T01:37:35.230Z,19.35
2022-10-09T01:40:03.101Z,17.40
2022-10-09T01:42:30.189Z,15.05
2022-10-09T01:44:56.796Z,14.35
2022-10-09T01:47:24.069Z,11.02
2022-10-09T01:50:10.988Z,10.45
2022-10-09T01:53:10.364Z,10.60
2022-10-09T01:56:11.650Z,9.80
2022-10-09T01:58:48.414Z,8.50
2022-10-09T02:01:28.678Z,9.45
2022-10-09T02:03:58.827Z,7.60
2022-10-09T02:06:27.835Z,8.77
2022-10-09T02:08:55.558Z,7.68
2022-10-09T02:11:25.808Z,7.85
2022-10-09T02:13:53.653Z,8.43
2022-10-09T02:16:39.037Z,8.40
2022-10-09T02:19:23.507Z,9.15
2022-10-09T02:21:57.178Z,8.27
2022-10-09T02:24:25.757Z,7.30
2022-10-09T02:26:54.806Z,6.90
2022-10-09T02:29:21.951Z,6.18
2022-10-09T02:31:48.489Z,6.93
2022-10-09T02:34:19.521Z,7.38
2022-10-09T02:36:46.933Z,6.68
2022-10-09T02:39:14.271Z,6.15
2022-10-09T02:41:41.044Z,6.63
2022-10-09T02:44:07.666Z,7.55
2022-10-09T02:46:34.409Z,7.05
2022-10-09T02:49:01.213Z,6.47
2022-10-09T02:51:27.802Z,6.68
2022-10-09T02:53:55.102Z,6.95
2022-10-09T02:56:23.234Z,6.43
2022-10-09T02:58:50.219Z,7.00
2022-10-09T03:01:17.399Z,7.32
2022-10-09T03:03:45.150Z,6.07
2022-10-09T03:06:15.082Z,7.47
2022-10-09T03:08:44.414Z,6.72
2022-10-09T03:11:11.998Z,7.18
2022-10-09T03:13:39.816Z,7.28
2022-10-09T03:16:10.845Z,7.15
2022-10-09T03:18:38.238Z,6.43
2022-10-09T03:21:22.456Z,7.50
2022-10-09T03:23:50.459Z,6.75
2022-10-09T03:26:19.813Z,7.40
2022-10-09T03:28:48.384Z,6.60
2022-10-09T03:31:39.367Z,7.55
2022-10-09T03:34:03.182Z,6.82
2022-10-09T03:36:29.844Z,6.78
2022-10-09T03:38:56.589Z,6.53
2022-10-09T03:41:23.135Z,6.28
2022-10-09T03:43:49.718Z,7.53
2022-10-09T03:46:16.574Z,7.15
2022-10-09T03:48:43.233Z,6.10
2022-10-09T03:51:09.817Z,6.18
2022-10-09T03:53:36.399Z,5.68
2022-10-09T03:56:03.176Z,5.45
2022-10-09T03:58:29.927Z,6.13
2022-10-09T04:00:56.840Z,6.47
2022-10-09T04:03:24.056Z,5.45
2022-10-09T04:05:50.654Z,4.90
2022-10-09T04:08:17.182Z,4.60
2022-10-09T04:10:44.902Z,4.50
2022-10-09T04:13:11.956Z,4.07
2022-10-09T04:15:38.820Z,4.20
2022-10-09T04:18:05.991Z,4.20
2022-10-09T04:20:32.775Z,4.72
2022-10-09T04:22:59.484Z,3.58
2022-10-09T04:25:26.062Z,4.20
2022-10-09T04:27:52.808Z,4.30
2022-10-09T04:30:19.330Z,4.32
2022-10-09T04:32:48.200Z,4.05
2022-10-09T04:35:16.858Z,5.05
2022-10-09T04:37:43.747Z,8.27
2022-10-09T04:40:10.589Z,87.30
2022-10-09T04:42:37.289Z,17.33
2022-10-09T04:45:04.694Z,12.23
2022-10-09T04:47:31.638Z,10.52
2022-10-09T04:49:58.192Z,7.05
2022-10-09T04:52:25.246Z,6.28
2022-10-09T04:54:51.783Z,5.63
2022-10-09T04:57:18.505Z,5.53
2022-10-09T04:59:45.394Z,5.85
2022-10-09T05:02:12.103Z,5.80
2022-10-09T05:04:38.922Z,5.47
2022-10-09T05:07:05.488Z,4.97
2022-10-09T05:09:32.088Z,4.80
2022-10-09T05:11:58.864Z,5.75
2022-10-09T05:14:25.438Z,4.68
2022-10-09T05:17:12.373Z,4.68
2022-10-09T05:19:39.414Z,4.90
2022-10-09T05:22:06.090Z,5.05
2022-10-09T05:24:32.717Z,4.75
2022-10-09T05:26:59.497Z,4.50
2022-10-09T05:29:26.056Z,5.15
2022-10-09T05:31:52.645Z,4.47
2022-10-09T05:34:19.539Z,4.65
2022-10-09T05:36:46.188Z,4.72
2022-10-09T05:39:12.895Z,4.95
2022-10-09T05:41:39.447Z,4.43
2022-10-09T05:44:06.082Z,4.95
2022-10-09T05:46:32.921Z,4.13
2022-10-09T05:49:01.890Z,4.38
2022-10-09T05:51:34.066Z,3.75
2022-10-09T05:54:03.882Z,4.43
2022-10-09T05:56:32.789Z,3.97
2022-10-09T05:59:05.116Z,4.03
2022-10-09T06:01:51.682Z,4.18
2022-10-09T06:04:23.829Z,5.07
2022-10-09T06:06:50.895Z,4.47
2022-10-09T06:09:22.076Z,4.90
2022-10-09T06:11:50.834Z,4.63
2022-10-09T06:14:17.771Z,4.30
2022-10-09T06:16:45.767Z,4.03
2022-10-09T06:19:14.178Z,4.70
2022-10-09T06:21:40.812Z,3.63
2022-10-09T06:24:08.030Z,4.30
2022-10-09T06:26:37.619Z,3.55
2022-10-09T06:29:04.182Z,4.28
2022-10-09T06:31:33.066Z,4.30
2022-10-09T06:34:01.563Z,3.95
2022-10-09T06:36:30.796Z,3.55
2022-10-09T06:38:59.872Z,3.30
2022-10-09T06:41:28.334Z,3.63
2022-10-09T06:44:00.349Z,3.58
2022-10-09T06:46:33.582Z,3.50
2022-10-09T06:49:01.516Z,3.90
2022-10-09T06:51:28.909Z,3.90
2022-10-09T06:53:57.662Z,3.42
2022-10-09T06:56:25.710Z,3.53
2022-10-09T06:58:52.353Z,4.22
2022-10-09T07:01:24.005Z,4.32
2022-10-09T07:03:56.557Z,3.77
2022-10-09T07:08:57.456Z,3.85
2022-10-09T07:11:29.387Z,3.90
2022-10-09T07:14:00.671Z,5.13
2022-10-09T07:16:30.402Z,3.88
2022-10-09T07:18:58.126Z,4.78
2022-10-09T07:21:24.790Z,3.90
2022-10-09T07:23:51.446Z,3.50
2022-10-09T07:26:23.762Z,4.38
2022-10-09T07:28:51.181Z,4.63
2022-10-09T07:31:18.069Z,4.43
2022-10-09T07:33:48.220Z,4.45
2022-10-09T07:36:14.902Z,4.30
2022-10-09T07:38:41.553Z,4.25
2022-10-09T07:41:10.474Z,4.15
2022-10-09T07:43:38.720Z,4.75
2022-10-09T07:46:07.066Z,3.70
2022-10-09T07:48:35.474Z,4.53
2022-10-09T07:51:29.319Z,4.68
2022-10-09T07:53:57.329Z,4.60
2022-10-09T07:56:26.530Z,4.50
2022-10-09T07:58:58.836Z,4.47
2022-10-09T08:01:29.739Z,4.70
2022-10-09T08:03:58.562Z,5.32
2022-10-09T08:06:25.747Z,4.32
2022-10-09T08:08:53.706Z,4.22
2022-10-09T08:11:21.522Z,5.65
2022-10-09T08:13:49.977Z,6.55
2022-10-09T08:16:18.183Z,5.18
2022-10-09T08:18:45.321Z,4.57
2022-10-09T08:21:15.989Z,4.43
2022-10-09T08:23:43.199Z,5.03
2022-10-09T08:26:18.408Z,4.35
2022-10-09T08:28:49.723Z,3.95
2022-10-09T08:31:17.769Z,3.33
2022-10-09T08:33:44.481Z,3.40
2022-10-09T08:36:14.402Z,4.28
2022-10-09T08:38:48.664Z,3.55
2022-10-09T08:41:49.072Z,3.38
2022-10-09T08:44:22.684Z,3.38
2022-10-09T08:47:00.799Z,3.65
2022-10-09T08:49:40.513Z,3.53
2022-10-09T08:52:15.910Z,3.38
2022-10-09T08:54:43.189Z,3.45
2022-10-09T08:57:17.593Z,3.40
2022-10-09T08:59:44.805Z,3.08
2022-10-09T09:02:58.001Z,3.28
2022-10-09T09:08:32.766Z,3.10
2022-10-09T09:11:21.483Z,3.42
2022-10-09T09:14:53.363Z,3.38
2022-10-09T09:17:28.576Z,3.40
2022-10-09T09:20:05.008Z,3.63
2022-10-09T09:22:33.879Z,2.97
2022-10-09T09:25:01.225Z,2.40
2022-10-09T09:27:32.479Z,3.22
2022-10-09T09:30:24.799Z,3.05
2022-10-09T09:33:09.074Z,3.00
2022-10-09T09:36:07.034Z,2.80
2022-10-09T09:38:33.699Z,3.45
2022-10-09T09:41:00.379Z,3.55
2022-10-09T09:43:27.217Z,4.00
2022-10-09T09:45:56.252Z,5.28
2022-10-09T09:48:39.257Z,2.88
2022-10-09T09:51:29.322Z,4.10
2022-10-09T09:54:15.360Z,2.78
2022-10-09T09:59:38.196Z,3.05
2022-10-09T10:02:12.515Z,5.95
2022-10-09T10:04:52.641Z,3.13
2022-10-09T10:07:33.842Z,3.50
2022-10-09T10:10:14.890Z,3.20
2022-10-09T10:12:47.345Z,4.78
2022-10-09T10:15:26.687Z,3.65
2022-10-09T10:18:06.438Z,7.90
2022-10-09T10:20:43.097Z,11.07
2022-10-09T10:24:10.978Z,6.78
2022-10-09T10:26:55.670Z,3.50
2022-10-09T10:29:47.642Z,2.20
2022-10-09T10:32:40.447Z,1.50
2022-10-09T10:38:26.794Z,1.30
2022-10-09T10:41:03.186Z,1.80
2022-10-09T10:43:37.990Z,1.63
2022-10-09T10:46:28.548Z,2.05
2022-10-09T10:48:56.632Z,1.23
2022-10-09T10:51:58.773Z,1.30
2022-10-09T10:54:58.618Z,1.57
2022-10-09T10:57:52.746Z,1.58
2022-10-09T11:00:19.441Z,1.52
2022-10-09T11:03:29.675Z,2.25
2022-10-09T11:06:06.683Z,1.70
2022-10-09T11:09:25.417Z,1.30
2022-10-09T11:12:19.271Z,1.65
2022-10-09T11:15:37.855Z,1.05
2022-10-09T11:18:56.570Z,1.38
2022-10-09T11:21:59.646Z,1.30
2022-10-09T11:27:54.817Z,1.50
2022-10-09T11:30:27.672Z,1.35
2022-10-09T11:33:26.635Z,1.17
2022-10-09T11:36:03.665Z,1.00
2022-10-09T11:38:58.553Z,2.40
2022-10-09T11:41:27.454Z,1.80
2022-10-09T11:44:33.315Z,1.83
2022-10-09T11:47:26.413Z,1.67
2022-10-09T11:50:33.565Z,1.17
2022-10-09T11:53:09.095Z,1.75
2022-10-09T11:55:36.448Z,1.27
2022-10-09T11:58:20.297Z,1.10
2022-10-09T12:00:50.732Z,1.63
2022-10-09T12:03:43.407Z,1.52
2022-10-09T12:06:17.670Z,1.33
2022-10-09T12:08:56.643Z,1.42
2022-10-09T12:11:24.271Z,1.45
2022-10-09T12:13:53.695Z,1.30
2022-10-09T12:16:41.913Z,1.48
2022-10-09T12:19:44.709Z,1.60
2022-10-09T12:22:21.739Z,1.58
2022-10-09T12:24:50.646Z,1.52
2022-10-09T12:27:30.605Z,1.55
2022-10-09T12:30:25.335Z,1.23
2022-10-09T12:33:04.814Z,1.58
2022-10-09T12:35:37.442Z,1.30
2022-10-09T12:38:25.671Z,1.40
2022-10-09T12:40:54.870Z,1.13
2022-10-09T12:43:23.617Z,1.45
2022-10-09T12:45:52.975Z,1.40
2022-10-09T12:48:28.422Z,1.77
2022-10-09T12:50:55.849Z,1.88
2022-10-09T12:53:27.538Z,1.20
2022-10-09T12:56:00.872Z,1.58
2022-10-09T12:58:33.264Z,1.50
2022-10-09T13:03:40.054Z,1.55
2022-10-09T13:06:17.569Z,1.77
2022-10-09T13:08:45.521Z,1.17
2022-10-09T13:11:31.562Z,1.15
2022-10-09T13:13:58.607Z,1.30
2022-10-09T13:16:25.799Z,1.50
2022-10-09T13:19:01.387Z,1.45
2022-10-09T13:21:34.287Z,1.40
2022-10-09T13:24:13.235Z,1.48
2022-10-09T13:26:42.548Z,1.65
2022-10-09T13:29:09.411Z,1.42
2022-10-09T13:31:37.077Z,1.20
2022-10-09T13:34:14.041Z,1.75
2022-10-09T13:36:41.044Z,1.48
2022-10-09T13:39:13.480Z,1.45
2022-10-09T13:44:06.960Z,1.20
2022-10-09T13:46:33.795Z,1.80
2022-10-09T13:49:00.421Z,1.48
2022-10-09T13:51:26.979Z,1.58
2022-10-09T13:53:53.810Z,1.92
2022-10-09T13:56:20.438Z,1.38
2022-10-09T13:58:47.107Z,1.85
2022-10-09T14:01:13.833Z,1.40
2022-10-09T14:03:40.683Z,1.55
2022-10-09T14:06:07.595Z,1.40
2022-10-09T14:08:34.275Z,1.27
2022-10-09T14:11:01.470Z,2.10
2022-10-09T14:13:28.797Z,1.60
2022-10-09T14:15:55.890Z,1.00
2022-10-09T14:18:22.463Z,1.75
2022-10-09T14:20:49.614Z,1.42
2022-10-09T14:23:16.437Z,1.23
2022-10-09T14:25:42.973Z,1.40
2022-10-09T14:28:09.663Z,1.50
2022-10-09T14:30:40.351Z,1.65
2022-10-09T14:33:06.967Z,1.13
2022-10-09T14:35:33.781Z,1.70
2022-10-09T14:38:00.312Z,1.75
2022-10-09T14:40:26.968Z,1.33
2022-10-09T14:42:53.677Z,2.17
2022-10-09T14:45:20.252Z,1.35
2022-10-09T14:47:47.048Z,1.40
2022-10-09T14:50:13.642Z,1.35
2022-10-09T14:52:40.224Z,1.17
2022-10-09T14:55:07.393Z,1.13
2022-10-09T14:57:35.608Z,1.40
2022-10-09T15:00:04.680Z,1.20
2022-10-09T15:02:31.320Z,1.13
2022-10-09T15:04:58.004Z,1.23
2022-10-09T15:07:27.927Z,1.10
2022-10-09T15:09:55.007Z,1.42
2022-10-09T15:12:21.665Z,1.50
2022-10-09T15:14:48.247Z,1.25
2022-10-09T15:17:14.825Z,1.42
2022-10-09T15:19:41.425Z,1.52
2022-10-09T15:22:08.023Z,1.27
2022-10-09T15:24:34.817Z,1.08
2022-10-09T15:27:01.615Z,1.25
2022-10-09T15:29:28.175Z,1.20
2022-10-09T15:31:54.805Z,1.10
2022-10-09T15:34:21.484Z,1.20
2022-10-09T15:36:48.253Z,1.30
2022-10-09T15:39:15.457Z,1.50
2022-10-09T15:41:43.288Z,1.30
2022-10-09T15:44:18.865Z,1.40
2022-10-09T15:46:47.181Z,1.70
2022-10-09T15:49:14.229Z,1.60
2022-10-09T15:51:41.045Z,1.90
2022-10-09T15:54:07.771Z,2.22
2022-10-09T15:56:39.467Z,1.80
2022-10-09T15:59:06.895Z,2.13
2022-10-09T16:01:33.584Z,1.83
2022-10-09T16:04:00.160Z,1.70
2022-10-09T16:06:26.752Z,2.40
2022-10-09T16:08:58.464Z,1.85
2022-10-09T16:11:26.537Z,1.80
2022-10-09T16:13:54.494Z,2.70
2022-10-09T16:16:23.671Z,2.30
2022-10-09T16:18:54.145Z,2.38
2022-10-09T16:21:25.767Z,2.33
2022-10-09T16:23:58.184Z,2.40
2022-10-09T16:26:30.582Z,2.38
2022-10-09T16:28:59.761Z,1.85
2022-10-09T16:31:30.278Z,1.70
2022-10-09T16:33:58.098Z,1.70
2022-10-09T16:36:24.719Z,2.20
2022-10-09T16:38:51.517Z,1.95
2022-10-09T16:41:19.730Z,2.50
2022-10-09T16:43:48.274Z,2.63
2022-10-09T16:46:20.435Z,1.90
2022-10-09T16:48:48.173Z,2.10
2022-10-09T16:51:18.285Z,2.13
2022-10-09T16:53:48.116Z,1.67
2022-10-09T16:56:17.470Z,1.98
2022-10-09T16:58:44.234Z,2.20
2022-10-09T17:01:11.495Z,2.00
2022-10-09T17:03:41.082Z,2.05
2022-10-09T17:06:10.301Z,2.05
2022-10-09T17:08:36.987Z,2.30
2022-10-09T17:11:06.834Z,2.67
2022-10-09T17:13:33.471Z,2.70
2022-10-09T17:16:00.297Z,2.58
2022-10-09T17:18:26.935Z,2.30
2022-10-09T17:20:53.456Z,2.28
2022-10-09T17:23:20.085Z,2.60
2022-10-09T17:25:46.684Z,2.13
2022-10-09T17:28:13.319Z,2.40
2022-10-09T17:30:40.730Z,2.35
2022-10-09T17:33:07.509Z,2.97
2022-10-09T17:35:39.272Z,2.40
2022-10-09T17:38:05.950Z,1.85
2022-10-09T17:40:36.762Z,3.00
2022-10-09T17:43:03.497Z,2.55
2022-10-09T17:45:30.209Z,2.55
2022-10-09T17:47:56.969Z,2.50
2022-10-09T17:50:23.675Z,2.42
2022-10-09T17:52:50.611Z,2.28
2022-10-09T17:55:17.426Z,2.42
2022-10-09T17:57:44.133Z,2.30
2022-10-09T18:00:11.862Z,2.15
2022-10-09T18:02:38.565Z,2.60
2022-10-09T18:05:05.716Z,2.75
2022-10-09T18:07:32.521Z,2.50
2022-10-09T18:09:59.182Z,2.42
2022-10-09T18:12:25.889Z,2.90
2022-10-09T18:14:52.486Z,2.80
2022-10-09T18:17:19.585Z,2.30
2022-10-09T18:19:46.360Z,2.55
2022-10-09T18:22:12.962Z,2.38
2022-10-09T18:24:39.562Z,3.13
2022-10-09T18:27:06.176Z,2.70
2022-10-09T18:29:33.117Z,2.35
2022-10-09T18:31:59.672Z,2.15
2022-10-09T18:34:26.389Z,2.50
2022-10-09T18:36:53.083Z,3.20
2022-10-09T18:39:21.519Z,2.47
2022-10-09T18:41:48.537Z,2.53
2022-10-09T18:44:19.563Z,2.75
2022-10-09T18:46:59.969Z,3.88
2022-10-09T18:49:31.823Z,2.47
2022-10-09T18:52:02.645Z,2.78
2022-10-09T18:54:30.525Z,2.53
2022-10-09T18:56:57.741Z,3.10
2022-10-09T18:59:24.575Z,2.53
2022-10-09T19:01:51.217Z,2.97
2022-10-09T19:04:19.034Z,2.90
2022-10-09T19:06:46.151Z,2.92
2022-10-09T19:09:13.244Z,3.80
2022-10-09T19:11:40.324Z,2.60
2022-10-09T19:14:07.017Z,2.47
2022-10-09T19:16:34.850Z,3.05
2022-10-09T19:19:01.785Z,3.00
2022-10-09T19:21:31.631Z,2.63
2022-10-09T19:24:03.477Z,2.83
2022-10-09T19:26:30.267Z,2.83
2022-10-09T19:28:56.957Z,2.80
2022-10-09T19:31:23.540Z,2.80
2022-10-09T19:33:50.123Z,3.65
2022-10-09T19:36:16.955Z,3.65
2022-10-09T19:38:43.802Z,3.03
2022-10-09T19:41:13.314Z,2.85
2022-10-09T19:43:40.104Z,3.80
2022-10-09T19:46:09.773Z,3.20
2022-10-09T19:48:37.330Z,3.47
2022-10-09T19:51:22.123Z,3.35
2022-10-09T19:53:49.925Z,4.35
2022-10-09T19:56:19.472Z,2.63
2022-10-09T19:58:47.870Z,2.90
2022-10-09T20:01:17.626Z,3.20
2022-10-09T20:03:44.966Z,2.78
2022-10-09T20:06:12.494Z,2.85
2022-10-09T20:08:40.585Z,3.30
2022-10-09T20:11:07.940Z,3.28
2022-10-09T20:13:36.612Z,2.53
2022-10-09T20:16:06.037Z,3.10
2022-10-09T20:18:33.210Z,2.58
2022-10-09T20:20:59.884Z,2.85
2022-10-09T20:23:26.651Z,3.10
2022-10-09T20:26:05.733Z,2.63
2022-10-09T20:28:33.653Z,3.10
2022-10-09T20:31:06.418Z,2.90
2022-10-09T20:33:34.543Z,2.95
2022-10-09T20:36:01.585Z,2.53
2022-10-09T20:38:28.553Z,2.03
2022-10-09T20:41:01.297Z,3.00
2022-10-09T20:43:27.797Z,2.72
2022-10-09T20:45:54.318Z,2.65
2022-10-09T20:48:20.906Z,2.63
2022-10-09T20:50:47.667Z,2.55
2022-10-09T20:53:14.315Z,3.40
2022-10-09T20:55:40.874Z,2.55
2022-10-09T20:58:07.502Z,2.60
2022-10-09T21:00:34.094Z,2.33
2022-10-09T21:03:00.898Z,2.58
2022-10-09T21:05:27.671Z,2.92
2022-10-09T21:07:54.225Z,2.60
2022-10-09T21:10:20.794Z,2.90
2022-10-09T21:12:47.498Z,2.90
2022-10-09T21:15:14.428Z,2.63
2022-10-09T21:17:41.164Z,2.30
2022-10-09T21:20:08.222Z,2.70
2022-10-09T21:22:34.829Z,2.30
2022-10-09T21:25:01.394Z,2.42
2022-10-09T21:27:28.173Z,2.53
2022-10-09T21:29:54.949Z,2.70
2022-10-09T21:32:21.510Z,2.35
2022-10-09T21:34:48.133Z,2.65
2022-10-09T21:37:22.495Z,2.35
2022-10-09T21:39:49.391Z,2.53
2022-10-09T21:42:16.160Z,2.22
2022-10-09T21:44:42.776Z,2.42
2022-10-09T21:47:18.730Z,2.55
2022-10-09T21:49:45.480Z,2.28
2022-10-09T21:52:12.278Z,2.55
2022-10-09T21:54:38.856Z,2.50
2022-10-09T21:57:05.457Z,1.88
2022-10-09T21:59:32.046Z,2.42
2022-10-09T22:01:58.807Z,1.92
2022-10-09T22:04:25.573Z,2.45
2022-10-09T22:06:52.350Z,2.22
2022-10-09T22:09:19.023Z,2.42
2022-10-09T22:11:45.596Z,2.40
2022-10-09T22:14:12.344Z,2.55
2022-10-09T22:16:39.200Z,2.75
2022-10-09T22:19:05.983Z,2.22
2022-10-09T22:21:32.802Z,2.17
2022-10-09T22:24:00.515Z,2.17
2022-10-09T22:26:27.220Z,2.22
2022-10-09T22:28:53.980Z,2.13
2022-10-09T22:31:26.294Z,2.38
2022-10-09T22:33:55.323Z,1.92
2022-10-09T22:36:24.124Z,2.40
2022-10-09T22:38:54.392Z,2.28
2022-10-09T22:41:22.086Z,2.22
2022-10-09T22:43:51.632Z,2.20
2022-10-09T22:46:23.807Z,2.50
2022-10-09T22:48:50.801Z,2.05
2022-10-09T22:51:18.964Z,2.33
2022-10-09T22:53:46.897Z,1.95
2022-10-09T22:56:19.524Z,2.13
2022-10-09T22:58:47.057Z,1.75
2022-10-09T23:01:17.341Z,2.08
2022-10-09T23:03:44.279Z,2.55
2022-10-09T23:06:13.882Z,2.70
2022-10-09T23:08:42.641Z,2.40
2022-10-09T23:11:10.564Z,2.05
2022-10-09T23:13:37.329Z,2.28
2022-10-09T23:16:05.836Z,2.97
2022-10-09T23:18:32.784Z,2.35
2022-10-09T23:21:03.398Z,2.33
2022-10-09T23:23:31.314Z,2.38
2022-10-09T23:25:57.830Z,2.60
2022-10-09T23:28:27.418Z,2.38
2022-10-09T23:31:01.015Z,1.92
2022-10-09T23:33:27.736Z,2.60
2022-10-09T23:35:54.361Z,2.60
2022-10-09T23:38:20.970Z,2.20
2022-10-09T23:41:04.896Z,2.78
2022-10-09T23:43:33.801Z,2.42
2022-10-09T23:46:02.087Z,2.05
2022-10-09T23:48:29.101Z,2.35
2022-10-09T23:50:56.766Z,2.70
2022-10-09T23:53:25.967Z,2.53
2022-10-09T23:55:53.826Z,2.45
2022-10-09T23:58:21.289Z,2.40
